Time;durP1;ratioP1;P1;durP2;ratioP2;P2;SDS_P1;SDS_P2;PMS_P1;PMS_P2;Temp;Humidity;BMP_temperature;BMP_pressure;BME280_temperature;BME280_humidity;BME280_pressure;Samples;Min_cycle;Max_cycle;Signal;HPM_P1;HPM_P2
2022/06/12 00:00:50;;;;;;;7.93;4.13;;;;;;;;;;4979460;28;20309;-60
2022/06/12 00:03:17;;;;;;;7.53;3.80;;;;;;;;;;4988372;28;20740;-59
2022/06/12 00:05:44;;;;;;;6.73;4.13;;;;;;;;;;4986154;28;20241;-59
2022/06/12 00:08:10;;;;;;;6.90;4.67;;;;;;;;;;4984841;28;20191;-59
2022/06/12 00:10:36;;;;;;;7.60;4.40;;;;;;;;;;4982461;28;20556;-60
2022/06/12 00:13:03;;;;;;;6.80;4.20;;;;;;;;;;4982918;28;20721;-59
2022/06/12 00:15:29;;;;;;;8.43;4.40;;;;;;;;;;4981183;28;20196;-60
2022/06/12 00:17:55;;;;;;;8.20;4.20;;;;;;;;;;4987695;28;20189;-59
2022/06/12 00:20:22;;;;;;;11.67;4.30;;;;;;;;;;4977849;28;20189;-59
2022/06/12 00:22:48;;;;;;;9.23;4.07;;;;;;;;;;4982842;28;20229;-60
2022/06/12 00:25:14;;;;;;;6.17;3.83;;;;;;;;;;4977151;28;20193;-60
2022/06/12 00:27:41;;;;;;;8.63;4.77;;;;;;;;;;4962347;28;20263;-60
2022/06/12 00:30:08;;;;;;;8.50;4.20;;;;;;;;;;4978507;28;20186;-59
2022/06/12 00:32:35;;;;;;;8.43;4.50;;;;;;;;;;4985343;28;20185;-60
2022/06/12 00:35:01;;;;;;;8.37;4.10;;;;;;;;;;4975868;28;20197;-60
2022/06/12 00:37:27;;;;;;;11.13;4.77;;;;;;;;;;4978823;28;20225;-60
2022/06/12 00:39:54;;;;;;;8.40;4.40;;;;;;;;;;4983765;28;20209;-60
2022/06/12 00:42:27;;;;;;;8.10;4.30;;;;;;;;;;4978401;28;20287;-59
2022/06/12 00:44:53;;;;;;;9.90;4.17;;;;;;;;;;4975396;28;20211;-60
2022/06/12 00:47:19;;;;;;;5.63;4.00;;;;;;;;;;4979759;28;20190;-59
2022/06/12 00:49:47;;;;;;;9.83;4.53;;;;;;;;;;4986067;28;20205;-59
2022/06/12 00:52:39;;;;;;;8.47;4.53;;;;;;;;;;4980268;28;20276;-60
2022/06/12 00:55:14;;;;;;;8.17;4.13;;;;;;;;;;4972406;28;20213;-59
2022/06/12 00:57:40;;;;;;;8.53;4.30;;;;;;;;;;4972413;28;20774;-59
2022/06/12 01:00:08;;;;;;;10.13;4.20;;;;;;;;;;4978796;28;20730;-60
2022/06/12 01:02:34;;;;;;;7.83;4.10;;;;;;;;;;4982021;28;20213;-59
2022/06/12 01:07:46;;;;;;;8.30;4.53;;;;;;;;;;4985267;28;20194;-59
2022/06/12 01:10:12;;;;;;;7.30;4.33;;;;;;;;;;4985004;28;20193;-59
2022/06/12 01:12:43;;;;;;;8.53;5.43;;;;;;;;;;4985239;28;20190;-59
2022/06/12 01:15:10;;;;;;;8.40;4.50;;;;;;;;;;4975897;28;21992;-59
2022/06/12 01:17:36;;;;;;;8.13;4.53;;;;;;;;;;4984210;28;20431;-60
2022/06/12 01:20:04;;;;;;;9.47;4.87;;;;;;;;;;4979992;28;20201;-59
2022/06/12 01:22:46;;;;;;;11.40;4.90;;;;;;;;;;4981399;28;20213;-60
2022/06/12 01:25:16;;;;;;;9.20;4.40;;;;;;;;;;4983723;28;20710;-59
2022/06/12 01:28:00;;;;;;;9.30;4.33;;;;;;;;;;4965198;28;20205;-60
2022/06/12 01:30:37;;;;;;;8.07;4.20;;;;;;;;;;4976050;28;20265;-59
2022/06/12 01:33:03;;;;;;;8.70;4.80;;;;;;;;;;4985131;28;20201;-59
2022/06/12 01:35:36;;;;;;;9.67;4.67;;;;;;;;;;4977858;28;20202;-59
2022/06/12 01:38:17;;;;;;;12.23;4.60;;;;;;;;;;4981165;28;20201;-60
2022/06/12 01:41:01;;;;;;;7.90;4.10;;;;;;;;;;4975078;28;20197;-60
2022/06/12 01:43:43;;;;;;;9.53;4.03;;;;;;;;;;4973133;28;20776;-59
2022/06/12 01:46:13;;;;;;;7.40;4.70;;;;;;;;;;4968870;28;20670;-59
2022/06/12 01:48:39;;;;;;;7.10;4.43;;;;;;;;;;4961508;28;20185;-59
2022/06/12 01:51:07;;;;;;;8.83;4.37;;;;;;;;;;4961277;28;20909;-59
2022/06/12 01:53:47;;;;;;;8.60;4.40;;;;;;;;;;4978139;28;20762;-60
2022/06/12 01:56:19;;;;;;;9.97;4.63;;;;;;;;;;4979339;28;20216;-60
2022/06/12 01:58:46;;;;;;;7.97;4.63;;;;;;;;;;4981268;28;20185;-59
2022/06/12 02:01:12;;;;;;;4.93;3.80;;;;;;;;;;4980569;28;20212;-59
2022/06/12 02:03:41;;;;;;;6.83;4.20;;;;;;;;;;4979373;28;20209;-59
2022/06/12 02:06:11;;;;;;;8.43;4.13;;;;;;;;;;4982413;28;20277;-58
2022/06/12 02:08:38;;;;;;;8.17;4.23;;;;;;;;;;4982288;28;20194;-61
2022/06/12 02:14:00;;;;;;;11.43;4.80;;;;;;;;;;4985543;28;20255;-60
2022/06/12 02:16:31;;;;;;;6.80;4.40;;;;;;;;;;4979458;28;20699;-59
2022/06/12 02:18:58;;;;;;;7.23;4.30;;;;;;;;;;4984065;28;20201;-59
2022/06/12 02:21:29;;;;;;;9.50;4.40;;;;;;;;;;4980291;28;20555;-60
2022/06/12 02:23:56;;;;;;;9.40;4.40;;;;;;;;;;4981776;28;20684;-60
2022/06/12 02:26:27;;;;;;;5.63;4.20;;;;;;;;;;4987218;28;20198;-60
2022/06/12 02:28:55;;;;;;;9.40;4.33;;;;;;;;;;4984088;28;20775;-60
2022/06/12 02:31:22;;;;;;;9.57;5.10;;;;;;;;;;4982159;28;20580;-60
2022/06/12 02:33:50;;;;;;;7.60;4.33;;;;;;;;;;4982334;28;20196;-60
2022/06/12 02:36:18;;;;;;;7.60;4.23;;;;;;;;;;4975507;28;20194;-60
2022/06/12 02:38:48;;;;;;;8.07;4.30;;;;;;;;;;4978943;28;20208;-59
2022/06/12 02:41:18;;;;;;;6.67;4.10;;;;;;;;;;4983207;28;20185;-58
2022/06/12 02:43:44;;;;;;;7.57;5.07;;;;;;;;;;4976445;28;20209;-59
2022/06/12 02:46:14;;;;;;;15.80;4.93;;;;;;;;;;4976500;28;20190;-59
2022/06/12 02:48:40;;;;;;;10.80;4.90;;;;;;;;;;4974170;28;20218;-59
2022/06/12 02:51:10;;;;;;;8.67;4.90;;;;;;;;;;4977637;28;20190;-59
2022/06/12 02:53:40;;;;;;;6.33;4.20;;;;;;;;;;4981663;28;20189;-60
2022/06/12 02:56:10;;;;;;;7.33;4.70;;;;;;;;;;4989494;28;20609;-60
2022/06/12 02:58:57;;;;;;;7.17;4.63;;;;;;;;;;4982061;28;20248;-60
2022/06/12 03:01:26;;;;;;;7.23;4.70;;;;;;;;;;4966983;28;20255;-59
2022/06/12 03:03:52;;;;;;;7.83;5.40;;;;;;;;;;4981906;28;20214;-59
2022/06/12 03:06:18;;;;;;;9.83;4.70;;;;;;;;;;4978503;28;20233;-59
2022/06/12 03:08:46;;;;;;;8.87;4.60;;;;;;;;;;4981963;28;24920;-60
2022/06/12 03:11:22;;;;;;;8.17;4.33;;;;;;;;;;4983275;28;20649;-60
2022/06/12 03:13:49;;;;;;;5.60;4.27;;;;;;;;;;4984070;28;20208;-60
2022/06/12 03:16:16;;;;;;;12.07;4.33;;;;;;;;;;4984861;28;20297;-59
2022/06/12 03:18:44;;;;;;;6.50;4.30;;;;;;;;;;4989669;28;20186;-60
2022/06/12 03:21:31;;;;;;;10.03;4.13;;;;;;;;;;4986801;28;20198;-60
2022/06/12 03:23:56;;;;;;;11.87;5.13;;;;;;;;;;4983042;28;20221;-58
2022/06/12 03:26:27;;;;;;;7.47;4.93;;;;;;;;;;4978393;28;20205;-61
2022/06/12 03:28:53;;;;;;;7.43;4.37;;;;;;;;;;4991727;28;20632;-60
2022/06/12 03:31:40;;;;;;;8.63;4.43;;;;;;;;;;4980069;28;20194;-60
2022/06/12 03:34:17;;;;;;;14.37;5.50;;;;;;;;;;4974666;28;20337;-60
2022/06/12 03:37:03;;;;;;;8.60;4.53;;;;;;;;;;4975539;28;20232;-60
2022/06/12 03:39:35;;;;;;;7.03;3.77;;;;;;;;;;4980032;28;20186;-58
2022/06/12 03:42:05;;;;;;;8.20;4.00;;;;;;;;;;4984393;28;20195;-58
2022/06/12 03:44:39;;;;;;;6.73;4.10;;;;;;;;;;4984851;28;21500;-58
2022/06/12 03:47:08;;;;;;;7.13;4.27;;;;;;;;;;4971039;28;20202;-58
2022/06/12 03:49:52;;;;;;;7.33;4.37;;;;;;;;;;4985789;28;20255;-60
2022/06/12 03:52:29;;;;;;;9.27;4.23;;;;;;;;;;4986637;28;20236;-60
2022/06/12 03:55:13;;;;;;;7.33;4.37;;;;;;;;;;4980202;28;20204;-58
2022/06/12 03:57:52;;;;;;;9.93;4.93;;;;;;;;;;4983715;28;20618;-60
2022/06/12 04:00:21;;;;;;;10.30;4.67;;;;;;;;;;4975027;28;20295;-60
2022/06/12 04:02:52;;;;;;;9.47;4.30;;;;;;;;;;4979141;28;20209;-60
2022/06/12 04:05:20;;;;;;;8.10;4.57;;;;;;;;;;4975268;28;20201;-59
2022/06/12 04:07:49;;;;;;;9.20;4.50;;;;;;;;;;4976668;28;20258;-60
2022/06/12 04:10:16;;;;;;;6.10;3.83;;;;;;;;;;4958875;28;20198;-60
2022/06/12 04:12:42;;;;;;;9.13;4.20;;;;;;;;;;4980155;28;20601;-60
2022/06/12 04:15:08;;;;;;;9.23;4.67;;;;;;;;;;4971780;28;20193;-60
2022/06/12 04:17:34;;;;;;;8.33;4.47;;;;;;;;;;4981164;28;20432;-60
2022/06/12 04:20:00;;;;;;;11.57;4.70;;;;;;;;;;4987284;28;20558;-60
2022/06/12 04:22:46;;;;;;;8.97;3.90;;;;;;;;;;4984402;28;20520;-60
2022/06/12 04:25:27;;;;;;;7.00;4.30;;;;;;;;;;4983670;28;20265;-60
2022/06/12 04:27:53;;;;;;;7.97;4.10;;;;;;;;;;4978658;28;20620;-60
2022/06/12 04:30:30;;;;;;;6.93;3.97;;;;;;;;;;4976009;28;20201;-59
2022/06/12 04:33:03;;;;;;;10.63;4.30;;;;;;;;;;4977102;28;20277;-60
2022/06/12 04:35:29;;;;;;;9.50;3.80;;;;;;;;;;4980714;28;20200;-59
2022/06/12 04:37:55;;;;;;;8.03;3.87;;;;;;;;;;4968922;28;20281;-59
2022/06/12 04:40:25;;;;;;;9.33;4.03;;;;;;;;;;4976153;28;20189;-60
2022/06/12 04:42:53;;;;;;;9.60;4.03;;;;;;;;;;4979487;28;20217;-60
2022/06/12 04:45:19;;;;;;;9.47;4.07;;;;;;;;;;4976465;28;20198;-60
2022/06/12 04:47:45;;;;;;;8.67;4.13;;;;;;;;;;4986169;28;20186;-61
2022/06/12 04:50:14;;;;;;;6.27;3.90;;;;;;;;;;4985081;28;20275;-60
2022/06/12 04:52:40;;;;;;;8.43;3.93;;;;;;;;;;4980660;28;20197;-60
2022/06/12 04:55:07;;;;;;;10.63;4.47;;;;;;;;;;4974405;28;20194;-59
2022/06/12 04:57:33;;;;;;;10.07;3.70;;;;;;;;;;4980732;28;20207;-60
2022/06/12 04:59:59;;;;;;;8.43;4.37;;;;;;;;;;4977820;28;20201;-60
2022/06/12 05:02:25;;;;;;;5.80;3.40;;;;;;;;;;4983842;28;20220;-60
2022/06/12 05:04:51;;;;;;;7.20;4.27;;;;;;;;;;4984398;28;20285;-60
2022/06/12 05:07:17;;;;;;;8.30;4.00;;;;;;;;;;4977193;28;20337;-60
2022/06/12 05:09:43;;;;;;;10.13;4.33;;;;;;;;;;4983665;28;20198;-60
2022/06/12 05:12:10;;;;;;;12.20;4.17;;;;;;;;;;4982741;28;20252;-59
2022/06/12 05:14:36;;;;;;;7.17;4.00;;;;;;;;;;4981267;28;20239;-59
2022/06/12 05:17:04;;;;;;;7.07;3.97;;;;;;;;;;4981796;28;20205;-60
2022/06/12 05:19:31;;;;;;;8.83;3.90;;;;;;;;;;4985109;28;20189;-60
2022/06/12 05:21:57;;;;;;;11.10;4.00;;;;;;;;;;4986836;28;20202;-60
2022/06/12 05:24:23;;;;;;;12.27;3.87;;;;;;;;;;4981630;28;20303;-60
2022/06/12 05:26:50;;;;;;;6.97;3.77;;;;;;;;;;4983667;28;25317;-59
2022/06/12 05:29:18;;;;;;;8.77;3.80;;;;;;;;;;4980898;28;20208;-60
2022/06/12 05:31:44;;;;;;;9.87;4.53;;;;;;;;;;4975404;28;20182;-59
2022/06/12 05:34:10;;;;;;;6.90;3.80;;;;;;;;;;4978710;28;20216;-60
2022/06/12 05:36:36;;;;;;;6.33;3.87;;;;;;;;;;4981046;28;20647;-60
2022/06/12 05:39:03;;;;;;;7.93;3.67;;;;;;;;;;4986199;28;20370;-59
2022/06/12 05:41:29;;;;;;;9.50;4.03;;;;;;;;;;4980889;28;20202;-59
2022/06/12 05:43:55;;;;;;;8.53;3.83;;;;;;;;;;4974111;28;20640;-59
2022/06/12 05:46:21;;;;;;;7.30;3.87;;;;;;;;;;4970284;28;20733;-59
2022/06/12 05:48:47;;;;;;;4.73;3.20;;;;;;;;;;4976082;28;20683;-60
2022/06/12 05:51:13;;;;;;;7.73;4.20;;;;;;;;;;4975684;28;20841;-59
2022/06/12 05:53:39;;;;;;;8.87;4.53;;;;;;;;;;4980508;28;20190;-61
2022/06/12 05:56:09;;;;;;;10.10;3.70;;;;;;;;;;4980405;28;20251;-60
2022/06/12 05:58:36;;;;;;;4.53;3.87;;;;;;;;;;4979692;28;20336;-60
2022/06/12 06:01:02;;;;;;;12.40;4.37;;;;;;;;;;4981336;28;20659;-60
2022/06/12 06:03:28;;;;;;;8.17;3.63;;;;;;;;;;4986075;28;20213;-60
2022/06/12 06:05:54;;;;;;;7.93;4.43;;;;;;;;;;4972382;28;20723;-59
2022/06/12 06:08:20;;;;;;;7.50;3.90;;;;;;;;;;4986741;28;20186;-60
2022/06/12 06:10:46;;;;;;;8.43;4.13;;;;;;;;;;4987701;28;20178;-60
2022/06/12 06:13:12;;;;;;;7.57;3.70;;;;;;;;;;4990336;28;20192;-60
2022/06/12 06:15:38;;;;;;;8.03;4.17;;;;;;;;;;4981357;28;20206;-60
2022/06/12 06:18:05;;;;;;;12.73;4.17;;;;;;;;;;4984478;28;20316;-60
2022/06/12 06:20:32;;;;;;;3.87;3.37;;;;;;;;;;4993010;28;20196;-59
2022/06/12 06:22:58;;;;;;;10.37;3.67;;;;;;;;;;4994397;28;20209;-61
2022/06/12 06:25:25;;;;;;;5.00;2.70;;;;;;;;;;4985087;28;20193;-60
2022/06/12 06:27:51;;;;;;;8.13;3.47;;;;;;;;;;4977224;28;20225;-60
2022/06/12 06:30:18;;;;;;;8.37;3.47;;;;;;;;;;4986626;28;20190;-59
2022/06/12 06:32:44;;;;;;;7.43;3.00;;;;;;;;;;4984011;28;20207;-60
2022/06/12 06:35:10;;;;;;;6.77;3.40;;;;;;;;;;4986597;28;20194;-59
2022/06/12 06:37:36;;;;;;;8.00;3.00;;;;;;;;;;4976691;28;20655;-59
2022/06/12 06:40:02;;;;;;;7.07;3.77;;;;;;;;;;4982936;28;20217;-59
2022/06/12 06:42:28;;;;;;;8.43;3.17;;;;;;;;;;4983726;28;20723;-60
2022/06/12 06:47:40;;;;;;;6.70;3.17;;;;;;;;;;4985744;28;20193;-63
2022/06/12 06:50:06;;;;;;;8.13;3.55;;;;;;;;;;4990268;28;20193;-63
2022/06/12 06:52:32;;;;;;;6.18;3.05;;;;;;;;;;4982664;28;20213;-61
2022/06/12 06:54:58;;;;;;;5.93;3.20;;;;;;;;;;4979069;28;20278;-63
2022/06/12 06:57:24;;;;;;;5.57;2.97;;;;;;;;;;4985271;28;20591;-63
2022/06/12 06:59:50;;;;;;;8.60;3.00;;;;;;;;;;4977536;28;20196;-67
2022/06/12 07:02:16;;;;;;;5.60;3.10;;;;;;;;;;4972489;28;20220;-65
2022/06/12 07:04:43;;;;;;;13.15;3.13;;;;;;;;;;4982002;28;20273;-62
2022/06/12 07:07:09;;;;;;;4.85;2.70;;;;;;;;;;4981344;28;20230;-62
2022/06/12 07:09:36;;;;;;;6.10;2.55;;;;;;;;;;4985724;28;20186;-62
2022/06/12 07:12:02;;;;;;;5.97;2.85;;;;;;;;;;4976095;28;20301;-62
2022/06/12 07:14:28;;;;;;;7.85;2.85;;;;;;;;;;4976315;28;20277;-67
2022/06/12 07:16:55;;;;;;;7.00;2.47;;;;;;;;;;4989758;28;20174;-65
2022/06/12 07:19:21;;;;;;;5.95;3.08;;;;;;;;;;4985017;28;20332;-65
2022/06/12 07:21:47;;;;;;;5.63;2.58;;;;;;;;;;4988277;28;20189;-65
2022/06/12 07:24:13;;;;;;;7.82;3.00;;;;;;;;;;4984865;28;20676;-65
2022/06/12 07:26:40;;;;;;;7.57;2.70;;;;;;;;;;4982978;28;20198;-65
2022/06/12 07:29:06;;;;;;;5.00;2.35;;;;;;;;;;4986239;28;20220;-65
2022/06/12 07:31:32;;;;;;;4.18;2.35;;;;;;;;;;4978256;28;20190;-65
2022/06/12 07:33:58;;;;;;;4.93;2.47;;;;;;;;;;4981457;28;20908;-65
2022/06/12 07:36:24;;;;;;;5.47;2.50;;;;;;;;;;4979890;28;20195;-65
2022/06/12 07:38:50;;;;;;;5.07;2.50;;;;;;;;;;4990354;28;20194;-65
2022/06/12 07:41:17;;;;;;;4.65;2.33;;;;;;;;;;4982822;28;20190;-66
2022/06/12 07:43:43;;;;;;;2.90;1.80;;;;;;;;;;4983127;28;20316;-65
2022/06/12 07:46:10;;;;;;;5.78;2.38;;;;;;;;;;4979783;28;20276;-66
2022/06/12 07:48:36;;;;;;;2.90;1.85;;;;;;;;;;4981550;28;20585;-65
2022/06/12 07:51:02;;;;;;;3.50;1.85;;;;;;;;;;4992226;28;20640;-65
2022/06/12 07:53:30;;;;;;;4.43;1.90;;;;;;;;;;4987735;28;20189;-65
2022/06/12 07:55:56;;;;;;;4.88;1.80;;;;;;;;;;4975321;28;20193;-58
2022/06/12 07:58:23;;;;;;;4.05;1.88;;;;;;;;;;4981795;28;20188;-62
2022/06/12 08:00:49;;;;;;;3.67;1.98;;;;;;;;;;4977592;28;20217;-59
2022/06/12 08:03:15;;;;;;;3.25;1.73;;;;;;;;;;4980184;28;20207;-59
2022/06/12 08:05:41;;;;;;;4.50;1.88;;;;;;;;;;4969276;28;20246;-59
2022/06/12 08:08:07;;;;;;;6.97;2.00;;;;;;;;;;4990873;28;20186;-60
2022/06/12 08:10:33;;;;;;;2.97;2.10;;;;;;;;;;4990539;28;20561;-60
2022/06/12 08:13:01;;;;;;;6.55;3.15;;;;;;;;;;4982905;28;20237;-60
2022/06/12 08:15:28;;;;;;;4.47;2.30;;;;;;;;;;4980131;28;20548;-60
2022/06/12 08:17:56;;;;;;;3.92;2.10;;;;;;;;;;4994120;28;20284;-62
2022/06/12 08:20:25;;;;;;;3.25;2.00;;;;;;;;;;4992770;28;20189;-61
2022/06/12 08:23:05;;;;;;;4.38;2.17;;;;;;;;;;4988741;28;20220;-61
2022/06/12 08:25:32;;;;;;;5.38;2.28;;;;;;;;;;4987887;28;20588;-61
2022/06/12 08:27:58;;;;;;;5.63;2.50;;;;;;;;;;4986412;28;20214;-58
2022/06/12 08:30:24;;;;;;;4.78;2.72;;;;;;;;;;4985811;28;20900;-59
2022/06/12 08:32:50;;;;;;;3.72;2.45;;;;;;;;;;4990454;28;20186;-59
2022/06/12 08:35:21;;;;;;;2.55;2.28;;;;;;;;;;4975133;28;20182;-60
2022/06/12 08:37:47;;;;;;;4.82;2.30;;;;;;;;;;4986096;28;20201;-58
2022/06/12 08:40:20;;;;;;;4.70;2.50;;;;;;;;;;4980942;28;20581;-59
2022/06/12 08:42:49;;;;;;;4.70;2.38;;;;;;;;;;4979302;28;20210;-59
2022/06/12 08:45:16;;;;;;;2.90;2.10;;;;;;;;;;4978736;28;20574;-58
2022/06/12 08:47:42;;;;;;;2.75;2.40;;;;;;;;;;4982678;28;20186;-58
2022/06/12 08:50:11;;;;;;;3.17;2.60;;;;;;;;;;4977761;28;20185;-59
2022/06/12 08:52:45;;;;;;;3.25;2.30;;;;;;;;;;4976550;28;21518;-57
2022/06/12 08:55:19;;;;;;;4.28;2.70;;;;;;;;;;4983786;28;20796;-57
2022/06/12 08:57:49;;;;;;;4.28;2.55;;;;;;;;;;4984938;28;20313;-60
2022/06/12 09:00:16;;;;;;;4.90;2.40;;;;;;;;;;4985717;28;20193;-61
2022/06/12 09:02:43;;;;;;;3.33;2.47;;;;;;;;;;4984366;28;20695;-61
2022/06/12 09:05:11;;;;;;;5.38;2.80;;;;;;;;;;4974929;28;20185;-60
2022/06/12 09:07:55;;;;;;;4.10;2.58;;;;;;;;;;4979905;28;20190;-60
2022/06/12 09:10:27;;;;;;;5.32;2.45;;;;;;;;;;4985304;28;20615;-59
2022/06/12 09:13:02;;;;;;;5.60;2.58;;;;;;;;;;4982934;28;20197;-60
2022/06/12 09:15:39;;;;;;;4.78;2.38;;;;;;;;;;4988250;28;20186;-59
2022/06/12 09:18:14;;;;;;;5.05;2.30;;;;;;;;;;4990029;28;20252;-60
2022/06/12 09:20:40;;;;;;;6.43;2.80;;;;;;;;;;4985340;28;20193;-59
2022/06/12 09:23:12;;;;;;;5.43;2.80;;;;;;;;;;4982829;28;21327;-58
2022/06/12 09:25:46;;;;;;;4.93;2.70;;;;;;;;;;4989675;28;20273;-60
2022/06/12 09:28:18;;;;;;;5.60;2.58;;;;;;;;;;4982735;28;21048;-59
2022/06/12 09:30:45;;;;;;;5.13;2.67;;;;;;;;;;4985560;28;20178;-59
2022/06/12 09:33:18;;;;;;;5.15;2.80;;;;;;;;;;4985114;28;20190;-60
2022/06/12 09:35:47;;;;;;;4.05;2.35;;;;;;;;;;4990869;28;20184;-59
2022/06/12 09:38:18;;;;;;;5.05;2.28;;;;;;;;;;4988379;28;20194;-60
2022/06/12 09:41:00;;;;;;;4.32;2.50;;;;;;;;;;4984283;28;20190;-60
2022/06/12 09:43:40;;;;;;;3.78;2.50;;;;;;;;;;4994045;28;20293;-59
2022/06/12 09:46:12;;;;;;;5.97;2.63;;;;;;;;;;4991277;28;20193;-60
2022/06/12 09:48:56;;;;;;;5.25;2.30;;;;;;;;;;4982975;28;20196;-59
2022/06/12 09:51:22;;;;;;;5.38;2.60;;;;;;;;;;4978838;28;20204;-60
2022/06/12 09:53:54;;;;;;;5.20;2.22;;;;;;;;;;4991270;28;20190;-60
2022/06/12 09:56:32;;;;;;;5.22;2.60;;;;;;;;;;4981739;28;20745;-60
2022/06/12 09:59:01;;;;;;;4.32;2.20;;;;;;;;;;4979166;28;20199;-60
2022/06/12 10:01:28;;;;;;;8.70;2.42;;;;;;;;;;4981011;28;20672;-59
2022/06/12 10:03:56;;;;;;;4.05;2.13;;;;;;;;;;4987928;28;20213;-58
2022/06/12 10:06:32;;;;;;;6.20;3.05;;;;;;;;;;4991470;28;20232;-58
2022/06/12 10:09:04;;;;;;;5.68;2.33;;;;;;;;;;4988382;28;20678;-59
2022/06/12 10:11:47;;;;;;;5.43;2.60;;;;;;;;;;4991140;28;20285;-59
2022/06/12 10:14:32;;;;;;;4.65;1.90;;;;;;;;;;4988788;28;20195;-59
2022/06/12 10:16:59;;;;;;;6.05;2.17;;;;;;;;;;4981962;28;20178;-60
2022/06/12 10:19:28;;;;;;;6.07;1.90;;;;;;;;;;4980933;28;20186;-59
2022/06/12 10:21:56;;;;;;;3.83;1.90;;;;;;;;;;4983219;28;20197;-59
2022/06/12 10:24:22;;;;;;;5.50;2.30;;;;;;;;;;4985353;28;20268;-60
2022/06/12 10:26:55;;;;;;;7.47;2.38;;;;;;;;;;4986904;28;20194;-59
2022/06/12 10:29:24;;;;;;;3.95;1.75;;;;;;;;;;4989891;28;20738;-59
2022/06/12 10:31:57;;;;;;;5.78;2.15;;;;;;;;;;4992776;28;20228;-58
2022/06/12 10:34:27;;;;;;;4.60;2.15;;;;;;;;;;4988342;28;20190;-61
2022/06/12 10:36:53;;;;;;;4.32;2.08;;;;;;;;;;4987584;28;20612;-58
2022/06/12 10:39:26;;;;;;;6.40;2.35;;;;;;;;;;4982876;28;20197;-58
2022/06/12 10:41:59;;;;;;;9.13;2.30;;;;;;;;;;4978121;28;20757;-63
2022/06/12 10:44:38;;;;;;;4.25;2.10;;;;;;;;;;4972465;28;20220;-59
2022/06/12 10:47:28;;;;;;;4.68;2.00;;;;;;;;;;4979614;28;20193;-60
2022/06/12 10:50:12;;;;;;;5.55;1.98;;;;;;;;;;4967345;28;20202;-58
2022/06/12 10:52:49;;;;;;;7.45;2.15;;;;;;;;;;4978006;28;20246;-60
2022/06/12 10:55:15;;;;;;;7.63;2.28;;;;;;;;;;4977120;28;20200;-60
2022/06/12 10:58:10;;;;;;;8.73;2.35;;;;;;;;;;4972740;28;20864;-60
2022/06/12 11:00:37;;;;;;;17.85;2.58;;;;;;;;;;4916281;28;20274;-59
2022/06/12 11:03:07;;;;;;;7.07;2.72;;;;;;;;;;4977498;28;20256;-59
2022/06/12 11:05:51;;;;;;;6.35;2.10;;;;;;;;;;4979399;28;20355;-61
2022/06/12 11:08:25;;;;;;;6.07;2.25;;;;;;;;;;4962145;28;20828;-59
2022/06/12 11:10:54;;;;;;;6.38;2.35;;;;;;;;;;4974474;28;20235;-59
2022/06/12 11:13:32;;;;;;;6.80;2.53;;;;;;;;;;4985142;28;20236;-59
2022/06/12 11:16:01;;;;;;;5.40;2.50;;;;;;;;;;4979326;28;20185;-60
2022/06/12 11:18:34;;;;;;;5.75;2.28;;;;;;;;;;4969517;28;20196;-60
2022/06/12 11:21:03;;;;;;;6.50;2.00;;;;;;;;;;4979028;28;20230;-60
2022/06/12 11:23:42;;;;;;;5.60;2.30;;;;;;;;;;4983431;28;20776;-59
2022/06/12 11:26:14;;;;;;;7.72;2.42;;;;;;;;;;4971717;28;20190;-60
2022/06/12 11:28:43;;;;;;;6.53;2.20;;;;;;;;;;4979397;28;20687;-60
2022/06/12 11:31:09;;;;;;;8.20;3.03;;;;;;;;;;4984834;28;20717;-59
2022/06/12 11:33:41;;;;;;;8.15;2.72;;;;;;;;;;4981530;28;20194;-59
2022/06/12 11:36:19;;;;;;;5.85;2.40;;;;;;;;;;4981770;28;20797;-60
2022/06/12 11:38:52;;;;;;;4.22;2.20;;;;;;;;;;4983257;28;20194;-60
2022/06/12 11:41:40;;;;;;;7.78;3.00;;;;;;;;;;4985106;28;20220;-57
2022/06/12 11:44:06;;;;;;;6.32;2.60;;;;;;;;;;4979788;28;20214;-57
2022/06/12 11:46:41;;;;;;;10.52;2.78;;;;;;;;;;4968439;28;20197;-57
2022/06/12 11:49:24;;;;;;;9.73;2.65;;;;;;;;;;4980070;28;20281;-58
2022/06/12 11:51:54;;;;;;;7.32;2.25;;;;;;;;;;4977258;28;20186;-57
2022/06/12 11:54:33;;;;;;;7.45;2.55;;;;;;;;;;4976016;28;20269;-58
2022/06/12 11:57:13;;;;;;;3.78;1.90;;;;;;;;;;4975577;28;20295;-58
2022/06/12 11:59:39;;;;;;;7.05;2.63;;;;;;;;;;4983145;28;20203;-58
2022/06/12 12:02:17;;;;;;;6.50;1.98;;;;;;;;;;4984024;28;20584;-57
2022/06/12 12:04:43;;;;;;;4.30;1.80;;;;;;;;;;4981882;28;20213;-55
2022/06/12 12:07:17;;;;;;;3.65;1.75;;;;;;;;;;4986853;28;20300;-58
2022/06/12 12:09:46;;;;;;;6.32;1.83;;;;;;;;;;4982139;28;20931;-58
2022/06/12 12:12:13;;;;;;;3.88;1.90;;;;;;;;;;4983774;28;20179;-58
2022/06/12 12:14:39;;;;;;;6.38;2.55;;;;;;;;;;4973544;28;20595;-58
2022/06/12 12:17:10;;;;;;;6.82;2.03;;;;;;;;;;4985422;28;20248;-58
2022/06/12 12:19:39;;;;;;;6.90;1.90;;;;;;;;;;4987445;28;20611;-56
2022/06/12 12:22:05;;;;;;;5.85;2.45;;;;;;;;;;4980584;28;20218;-58
2022/06/12 12:24:38;;;;;;;7.30;2.33;;;;;;;;;;4987649;28;20305;-58
2022/06/12 12:27:05;;;;;;;6.30;2.42;;;;;;;;;;4982637;28;20190;-58
2022/06/12 12:29:33;;;;;;;4.85;2.33;;;;;;;;;;4987784;28;20332;-58
2022/06/12 12:31:59;;;;;;;5.18;2.35;;;;;;;;;;4975045;28;20568;-56
2022/06/12 12:34:25;;;;;;;6.65;2.75;;;;;;;;;;4986108;28;20206;-58
2022/06/12 12:42:27;;;;;;;6.68;2.70;;;;;;;;;;4980745;28;20224;-58
2022/06/12 12:44:53;;;;;;;4.05;2.35;;;;;;;;;;4988781;28;20651;-58
2022/06/12 12:47:23;;;;;;;6.93;2.63;;;;;;;;;;4978602;28;20252;-58
2022/06/12 12:49:51;;;;;;;5.97;2.20;;;;;;;;;;4985424;28;20665;-58
2022/06/12 12:52:18;;;;;;;5.20;2.40;;;;;;;;;;4986418;28;20194;-56
2022/06/12 12:54:49;;;;;;;5.97;2.70;;;;;;;;;;4984886;28;20719;-58
2022/06/12 12:57:15;;;;;;;5.45;2.35;;;;;;;;;;4982211;28;20186;-57
2022/06/12 12:59:43;;;;;;;6.35;2.50;;;;;;;;;;4978710;28;20193;-57
2022/06/12 13:02:23;;;;;;;7.20;2.80;;;;;;;;;;4982224;28;20233;-57
2022/06/12 13:04:49;;;;;;;5.18;2.50;;;;;;;;;;4988803;28;20651;-58
2022/06/12 13:07:23;;;;;;;6.45;2.58;;;;;;;;;;4986051;28;20236;-58
2022/06/12 13:09:51;;;;;;;7.05;2.60;;;;;;;;;;4979500;28;20236;-58
2022/06/12 13:12:36;;;;;;;7.32;2.72;;;;;;;;;;4976202;28;20195;-58
2022/06/12 13:15:11;;;;;;;7.63;2.35;;;;;;;;;;4977813;28;20190;-57
2022/06/12 13:17:52;;;;;;;5.93;2.58;;;;;;;;;;4992387;28;20311;-56
2022/06/12 13:20:28;;;;;;;8.00;3.00;;;;;;;;;;4961630;28;20792;-56
2022/06/12 13:23:13;;;;;;;6.47;2.58;;;;;;;;;;4957244;28;21621;-57
2022/06/12 13:25:40;;;;;;;6.18;2.63;;;;;;;;;;4948490;28;20191;-57
2022/06/12 13:28:09;;;;;;;7.93;2.88;;;;;;;;;;4951626;28;21469;-57
2022/06/12 13:30:39;;;;;;;6.53;2.67;;;;;;;;;;4954581;28;20822;-57
2022/06/12 13:33:08;;;;;;;4.43;2.33;;;;;;;;;;4982781;28;20206;-57
2022/06/12 13:35:48;;;;;;;5.90;2.97;;;;;;;;;;4978431;28;20306;-57
2022/06/12 13:38:42;;;;;;;5.20;2.90;;;;;;;;;;4975328;28;20201;-57
2022/06/12 13:41:20;;;;;;;4.78;2.67;;;;;;;;;;4960904;28;20206;-58
2022/06/12 13:43:46;;;;;;;8.73;2.70;;;;;;;;;;4984341;28;20209;-58
2022/06/12 13:46:31;;;;;;;6.15;2.97;;;;;;;;;;4983857;28;20295;-57
2022/06/12 13:48:57;;;;;;;5.90;3.42;;;;;;;;;;4980107;28;20178;-57
2022/06/12 13:51:38;;;;;;;6.70;3.00;;;;;;;;;;4987537;28;20185;-57
2022/06/12 13:54:15;;;;;;;15.23;3.42;;;;;;;;;;4970827;28;20186;-59
2022/06/12 13:56:43;;;;;;;5.97;2.70;;;;;;;;;;4970306;28;20193;-59
2022/06/12 13:59:10;;;;;;;4.88;2.67;;;;;;;;;;4970750;28;20186;-57
2022/06/12 14:01:36;;;;;;;6.82;2.65;;;;;;;;;;4981499;28;20201;-58
2022/06/12 14:04:05;;;;;;;4.85;2.33;;;;;;;;;;4962035;28;22758;-58
2022/06/12 14:06:33;;;;;;;7.32;2.70;;;;;;;;;;4972004;28;20241;-57
2022/06/12 14:09:11;;;;;;;6.45;2.60;;;;;;;;;;4966950;28;21497;-58
2022/06/12 14:11:38;;;;;;;7.00;2.85;;;;;;;;;;4976398;28;20197;-57
2022/06/12 14:14:03;;;;;;;5.70;2.50;;;;;;;;;;4966717;28;20174;-59
2022/06/12 14:16:30;;;;;;;6.57;2.70;;;;;;;;;;4971643;28;20194;-59
2022/06/12 14:19:06;;;;;;;8.85;2.72;;;;;;;;;;4968436;28;20248;-59
2022/06/12 14:21:34;;;;;;;6.45;2.67;;;;;;;;;;4979265;28;20193;-58
2022/06/12 14:24:15;;;;;;;15.10;3.58;;;;;;;;;;4979842;28;20203;-57
2022/06/12 14:26:42;;;;;;;7.38;3.13;;;;;;;;;;4976839;28;20197;-58
2022/06/12 14:29:28;;;;;;;7.45;3.05;;;;;;;;;;4978165;28;20777;-58
2022/06/12 14:32:04;;;;;;;5.68;2.67;;;;;;;;;;4978640;28;20186;-57
2022/06/12 14:34:30;;;;;;;6.60;3.22;;;;;;;;;;4975455;28;20809;-58
2022/06/12 14:36:58;;;;;;;5.35;2.50;;;;;;;;;;4973724;28;21341;-57
2022/06/12 14:39:28;;;;;;;7.87;3.17;;;;;;;;;;4966515;28;20190;-58
2022/06/12 14:41:54;;;;;;;5.60;2.60;;;;;;;;;;4977831;28;20193;-59
2022/06/12 14:44:21;;;;;;;5.60;3.00;;;;;;;;;;4984377;28;20259;-59
2022/06/12 14:46:47;;;;;;;4.97;2.70;;;;;;;;;;4981972;28;20182;-58
2022/06/12 14:49:17;;;;;;;7.45;3.00;;;;;;;;;;4980500;28;20183;-58
2022/06/12 14:51:44;;;;;;;5.88;2.40;;;;;;;;;;4982353;28;20190;-58
2022/06/12 14:54:10;;;;;;;6.35;2.90;;;;;;;;;;4977094;28;20270;-58
2022/06/12 14:56:36;;;;;;;7.50;3.10;;;;;;;;;;4982011;28;20497;-58
2022/06/12 14:59:02;;;;;;;7.60;3.20;;;;;;;;;;4978321;28;20900;-58
2022/06/12 15:01:28;;;;;;;5.05;2.90;;;;;;;;;;4966338;28;20750;-58
2022/06/12 15:03:54;;;;;;;6.93;3.28;;;;;;;;;;4977728;28;20291;-58
2022/06/12 15:06:20;;;;;;;8.20;2.95;;;;;;;;;;4977084;28;20287;-58
2022/06/12 15:08:47;;;;;;;6.68;2.88;;;;;;;;;;4975148;28;20201;-58
2022/06/12 15:11:15;;;;;;;5.93;3.17;;;;;;;;;;4977394;28;20881;-58
2022/06/12 15:13:41;;;;;;;5.57;2.88;;;;;;;;;;4983378;28;20200;-58